Time;durP1;ratioP1;P1;durP2;ratioP2;P2;SDS_P1;SDS_P2;PMS_P1;PMS_P2;Temp;Humidity;BMP_temperature;BMP_pressure;BME280_temperature;BME280_humidity;BME280_pressure;Samples;Min_cycle;Max_cycle;Signal;HPM_P1;HPM_P2
2021/06/15 00:01:57;;;;;;;5.22;1.30;;;18.80;99.90;;;;;;5062871;28;20033;-64
2021/06/15 00:04:23;;;;;;;4.53;1.30;;;18.90;99.90;;;;;;5060232;28;20052;-65
2021/06/15 00:06:49;;;;;;;4.97;1.30;;;18.80;99.90;;;;;;5056711;28;20060;-66
2021/06/15 00:09:14;;;;;;;4.60;1.50;;;18.90;99.90;;;;;;5046663;28;20224;-67
2021/06/15 00:11:40;;;;;;;4.70;1.50;;;18.90;99.90;;;;;;5047380;28;20119;-67
2021/06/15 00:14:05;;;;;;;4.20;1.40;;;18.80;99.90;;;;;;5047883;28;20064;-64
2021/06/15 00:16:31;;;;;;;4.03;1.08;;;18.80;99.90;;;;;;5044267;28;20485;-66
2021/06/15 00:18:57;;;;;;;6.68;1.50;;;18.80;99.90;;;;;;5058372;28;20092;-68
2021/06/15 00:21:23;;;;;;;4.13;1.20;;;18.70;99.90;;;;;;5064138;28;20089;-66
2021/06/15 00:23:49;;;;;;;6.13;1.08;;;18.70;99.90;;;;;;5056882;28;20033;-67
2021/06/15 00:26:15;;;;;;;3.30;1.05;;;18.70;99.90;;;;;;5047608;28;20048;-66
2021/06/15 00:28:40;;;;;;;3.33;1.10;;;18.70;99.90;;;;;;5047821;28;20420;-66
2021/06/15 00:31:06;;;;;;;4.25;0.82;;;18.60;99.90;;;;;;5047011;28;20029;-67
2021/06/15 00:33:31;;;;;;;3.13;0.77;;;18.60;99.90;;;;;;5047945;28;20032;-67
2021/06/15 00:35:57;;;;;;;2.13;0.88;;;18.50;99.90;;;;;;5047447;28;20036;-67
2021/06/15 00:38:22;;;;;;;6.13;1.20;;;18.50;99.90;;;;;;5046889;28;20378;-65
2021/06/15 00:40:48;;;;;;;2.60;0.77;;;18.40;99.90;;;;;;5047450;28;20094;-67
2021/06/15 00:43:14;;;;;;;3.25;1.00;;;18.50;99.90;;;;;;5046680;28;20036;-67
2021/06/15 00:45:39;;;;;;;9.65;1.38;;;18.40;99.90;;;;;;5047719;28;20033;-66
2021/06/15 00:48:05;;;;;;;2.85;1.23;;;18.40;99.90;;;;;;5046784;28;20044;-67
2021/06/15 00:50:31;;;;;;;4.90;1.20;;;18.40;99.90;;;;;;5047129;28;20057;-66
2021/06/15 00:52:57;;;;;;;2.90;1.02;;;18.40;99.90;;;;;;5047054;28;20259;-67
2021/06/15 00:55:24;;;;;;;3.45;1.25;;;18.30;99.90;;;;;;5046886;28;21190;-66
2021/06/15 00:57:51;;;;;;;1.80;1.02;;;18.30;99.90;;;;;;5046760;28;20120;-65
2021/06/15 01:00:18;;;;;;;2.05;0.80;;;18.30;99.90;;;;;;5046867;28;20060;-67
2021/06/15 01:02:44;;;;;;;2.17;0.80;;;18.30;99.90;;;;;;5047115;28;20036;-66
2021/06/15 01:05:12;;;;;;;8.73;1.42;;;18.40;99.90;;;;;;5046519;28;20047;-67
2021/06/15 01:07:57;;;;;;;2.70;0.90;;;18.30;99.90;;;;;;5046933;28;20123;-67
2021/06/15 01:10:41;;;;;;;1.95;0.90;;;18.30;99.90;;;;;;5046426;28;20421;-66
2021/06/15 01:13:44;;;;;;;3.22;0.95;;;18.30;99.90;;;;;;5043700;28;20458;-67
2021/06/15 01:16:21;;;;;;;2.17;1.02;;;18.30;99.90;;;;;;5044541;28;20052;-64
2021/06/15 01:18:51;;;;;;;3.55;0.90;;;18.30;99.90;;;;;;5038933;28;20037;-66
2021/06/15 01:21:18;;;;;;;5.40;1.45;;;18.40;99.90;;;;;;5045666;28;20125;-67
2021/06/15 01:23:50;;;;;;;2.08;0.75;;;18.40;99.90;;;;;;5047237;28;20039;-67
2021/06/15 01:26:43;;;;;;;2.65;0.80;;;18.40;99.90;;;;;;5047234;28;20044;-66
2021/06/15 01:29:22;;;;;;;1.88;0.60;;;18.40;99.90;;;;;;5044791;28;20051;-66
2021/06/15 01:31:50;;;;;;;1.15;0.70;;;18.40;99.90;;;;;;5047270;28;20048;-67
2021/06/15 01:34:30;;;;;;;5.68;0.90;;;18.40;99.90;;;;;;5046325;28;20119;-67
2021/06/15 01:37:05;;;;;;;1.75;0.70;;;18.40;99.90;;;;;;5048297;28;20037;-67
2021/06/15 01:39:42;;;;;;;1.65;0.50;;;18.30;99.90;;;;;;5060882;28;20032;-66
2021/06/15 01:42:15;;;;;;;3.78;1.23;;;18.30;99.90;;;;;;5050693;28;20041;-65
2021/06/15 01:44:43;;;;;;;4.07;0.63;;;18.30;99.90;;;;;;5050615;28;20025;-67
2021/06/15 01:47:12;;;;;;;2.15;0.70;;;18.30;99.90;;;;;;5045786;28;20056;-67
2021/06/15 01:49:51;;;;;;;0.73;0.45;;;18.30;99.90;;;;;;5046457;28;20328;-65
2021/06/15 01:52:18;;;;;;;2.22;0.50;;;18.30;99.90;;;;;;5045730;28;20489;-67
2021/06/15 01:54:47;;;;;;;1.42;0.50;;;18.30;99.90;;;;;;5046473;28;20029;-66
2021/06/15 01:57:17;;;;;;;1.27;0.38;;;18.30;99.90;;;;;;5046101;28;20498;-66
2021/06/15 01:59:47;;;;;;;1.02;0.28;;;18.30;99.90;;;;;;5046830;28;20473;-66
2021/06/15 02:02:14;;;;;;;2.85;0.60;;;18.30;99.90;;;;;;5045840;28;20322;-66
2021/06/15 02:04:48;;;;;;;3.53;0.55;;;18.30;99.90;;;;;;5046428;28;20025;-66
2021/06/15 02:07:19;;;;;;;2.03;0.40;;;18.40;99.90;;;;;;5046131;28;20033;-67
2021/06/15 02:09:46;;;;;;;3.65;0.30;;;18.30;99.90;;;;;;5044712;28;20116;-67
2021/06/15 02:12:14;;;;;;;2.22;0.30;;;18.30;99.90;;;;;;5045818;28;20033;-66
2021/06/15 02:14:40;;;;;;;2.92;0.40;;;18.40;99.90;;;;;;5044772;28;20037;-66
2021/06/15 02:17:07;;;;;;;3.55;0.60;;;18.30;99.90;;;;;;5046325;28;20180;-67
2021/06/15 02:19:36;;;;;;;3.85;1.30;;;18.30;99.90;;;;;;5040317;28;20041;-67
2021/06/15 02:22:09;;;;;;;3.38;0.45;;;18.30;99.90;;;;;;5043898;28;20486;-66
2021/06/15 02:24:45;;;;;;;1.55;0.40;;;18.20;99.90;;;;;;5046383;28;20033;-67
2021/06/15 02:27:13;;;;;;;1.42;0.40;;;18.20;99.90;;;;;;5045845;28;20081;-66
2021/06/15 02:29:39;;;;;;;2.45;0.30;;;18.20;99.90;;;;;;5045994;28;20083;-67
2021/06/15 02:32:08;;;;;;;2.20;0.30;;;18.20;99.90;;;;;;5047460;28;20142;-67
2021/06/15 02:34:37;;;;;;;0.80;0.10;;;18.20;99.90;;;;;;5050281;28;20037;-67
2021/06/15 02:37:07;;;;;;;2.95;0.55;;;18.10;99.90;;;;;;5047889;28;20057;-66
2021/06/15 02:39:34;;;;;;;2.33;0.20;;;18.20;99.90;;;;;;5049950;28;20439;-67
2021/06/15 02:42:06;;;;;;;2.70;0.77;;;18.20;99.90;;;;;;5049369;28;20036;-67
2021/06/15 02:44:36;;;;;;;1.45;0.13;;;18.20;99.90;;;;;;5050115;28;20059;-67
2021/06/15 02:47:03;;;;;;;0.70;0.20;;;18.20;99.90;;;;;;5049944;28;20029;-66
2021/06/15 02:49:30;;;;;;;1.50;0.20;;;18.20;99.90;;;;;;5049278;28;20482;-66
2021/06/15 02:52:08;;;;;;;1.15;0.20;;;18.20;99.90;;;;;;5049387;28;20123;-67
2021/06/15 02:54:44;;;;;;;2.30;0.30;;;18.20;99.90;;;;;;5048842;28;20021;-67
2021/06/15 02:57:12;;;;;;;3.75;0.28;;;18.10;99.90;;;;;;5048478;28;20584;-67
2021/06/15 02:59:37;;;;;;;1.65;0.20;;;18.10;99.90;;;;;;5049529;28;20028;-67
2021/06/15 03:02:03;;;;;;;4.78;0.25;;;18.00;99.90;;;;;;5049182;28;20045;-66
2021/06/15 03:04:29;;;;;;;3.10;0.38;;;18.10;99.90;;;;;;5049544;28;20029;-66
2021/06/15 03:06:55;;;;;;;1.58;0.40;;;18.00;99.90;;;;;;5049308;28;20389;-67
2021/06/15 03:09:23;;;;;;;3.38;0.70;;;18.00;99.90;;;;;;5049244;28;20039;-70
2021/06/15 03:11:57;;;;;;;4.90;0.68;;;18.00;99.90;;;;;;5048009;28;20025;-67
2021/06/15 03:14:27;;;;;;;1.27;0.20;;;17.90;99.90;;;;;;5050068;28;20070;-67
2021/06/15 03:16:57;;;;;;;1.45;0.25;;;17.90;99.90;;;;;;5050119;28;20033;-67
2021/06/15 03:19:36;;;;;;;;;;;18.00;99.90;;;;;;5050838;28;20106;-66
2021/06/15 03:22:15;;;;;;;2.92;0.60;;;17.90;99.90;;;;;;5047323;28;19963;-67
2021/06/15 03:24:57;;;;;;;1.43;0.53;;;17.90;99.90;;;;;;5049686;28;20058;-67
2021/06/15 03:27:56;;;;;;;6.25;0.35;;;17.90;99.90;;;;;;5055826;28;20126;-63
2021/06/15 03:30:25;;;;;;;3.63;0.40;;;17.90;99.90;;;;;;5068308;28;20029;-63
2021/06/15 03:33:08;;;;;;;2.13;0.50;;;17.90;99.90;;;;;;5073098;28;20021;-64
2021/06/15 03:35:40;;;;;;;0.63;0.17;;;17.80;99.90;;;;;;5055877;28;20497;-67
2021/06/15 03:38:08;;;;;;;1.38;0.20;;;17.80;99.90;;;;;;5048571;28;20039;-65
2021/06/15 03:40:38;;;;;;;1.58;0.22;;;17.90;99.90;;;;;;5048449;28;20033;-67
2021/06/15 03:43:07;;;;;;;3.20;0.30;;;17.90;99.90;;;;;;5047436;28;20041;-67
2021/06/15 03:45:38;;;;;;;3.92;0.40;;;17.90;99.90;;;;;;5050363;28;20033;-65
2021/06/15 03:48:05;;;;;;;6.10;0.45;;;17.90;99.90;;;;;;5056368;28;20095;-64
2021/06/15 03:50:33;;;;;;;2.30;0.38;;;17.90;99.90;;;;;;5062540;28;20055;-65
2021/06/15 03:53:02;;;;;;;1.90;0.50;;;17.80;99.90;;;;;;5060973;28;20151;-66
2021/06/15 03:55:30;;;;;;;2.03;0.40;;;17.80;99.90;;;;;;5048256;28;20044;-67
2021/06/15 03:57:58;;;;;;;3.08;0.50;;;17.80;99.90;;;;;;5048748;28;20102;-67
2021/06/15 04:00:25;;;;;;;3.40;0.50;;;17.70;99.90;;;;;;5048359;28;20033;-66
2021/06/15 04:02:54;;;;;;;1.42;0.52;;;17.70;99.90;;;;;;5047105;28;20033;-66
2021/06/15 04:05:23;;;;;;;2.40;0.40;;;17.70;99.90;;;;;;5048648;28;20036;-67
2021/06/15 04:07:51;;;;;;;5.15;0.30;;;17.80;99.90;;;;;;5047196;28;20036;-66
2021/06/15 04:10:19;;;;;;;2.75;0.30;;;17.70;99.90;;;;;;5047218;28;20071;-67
2021/06/15 04:12:46;;;;;;;3.30;0.30;;;17.70;99.90;;;;;;5048367;28;20037;-65
2021/06/15 04:15:12;;;;;;;7.45;0.50;;;17.70;99.90;;;;;;5046367;28;20090;-67
2021/06/15 04:17:45;;;;;;;3.50;0.30;;;17.70;99.90;;;;;;5048370;28;20041;-67
2021/06/15 04:20:12;;;;;;;1.30;0.40;;;17.70;99.90;;;;;;5047430;28;20036;-66
2021/06/15 04:22:46;;;;;;;2.97;0.30;;;17.60;99.90;;;;;;5048842;28;20060;-64
2021/06/15 04:25:16;;;;;;;4.47;0.40;;;17.60;99.90;;;;;;5049308;28;20021;-63
2021/06/15 04:27:44;;;;;;;2.28;0.40;;;17.60;99.90;;;;;;5050447;28;20025;-63
2021/06/15 04:30:10;;;;;;;5.18;0.77;;;17.50;99.90;;;;;;5051993;28;20033;-67
2021/06/15 04:33:00;;;;;;;3.10;0.38;;;17.50;99.90;;;;;;5046392;28;20131;-64
2021/06/15 04:35:31;;;;;;;1.92;0.60;;;17.40;99.90;;;;;;5044758;28;20045;-64
2021/06/15 04:38:03;;;;;;;5.00;0.57;;;17.40;99.90;;;;;;5046903;28;20032;-63
2021/06/15 04:40:36;;;;;;;3.30;0.50;;;17.40;99.90;;;;;;5046969;28;20497;-63
2021/06/15 04:43:11;;;;;;;2.95;0.40;;;17.40;99.90;;;;;;5045995;28;20537;-67
2021/06/15 04:45:43;;;;;;;2.38;0.50;;;17.40;99.90;;;;;;5047274;28;20036;-64
2021/06/15 04:48:17;;;;;;;3.30;0.50;;;17.50;99.90;;;;;;5047262;28;20044;-63
2021/06/15 04:50:42;;;;;;;5.03;0.45;;;17.40;99.90;;;;;;5043020;28;20025;-66
2021/06/15 04:53:09;;;;;;;9.63;0.85;;;17.50;99.90;;;;;;5038531;28;20272;-63
2021/06/15 04:55:39;;;;;;;9.35;1.17;;;17.60;99.90;;;;;;5035246;28;20094;-66
2021/06/15 04:58:08;;;;;;;3.85;0.35;;;17.60;99.90;;;;;;5031943;28;20037;-66
2021/06/15 05:00:35;;;;;;;2.40;0.35;;;17.60;99.90;;;;;;5035153;28;20095;-64
2021/06/15 05:03:02;;;;;;;3.97;0.50;;;17.60;99.90;;;;;;5041604;28;20048;-66
2021/06/15 05:05:28;;;;;;;3.58;0.43;;;17.50;99.90;;;;;;5037097;28;20377;-64
2021/06/15 05:07:59;;;;;;;4.50;0.50;;;17.50;99.90;;;;;;5040588;28;20040;-64
2021/06/15 05:10:27;;;;;;;3.63;0.50;;;17.60;99.90;;;;;;5036068;28;20033;-69
2021/06/15 05:12:53;;;;;;;3.13;0.43;;;17.60;99.90;;;;;;5036477;28;20136;-68
2021/06/15 05:15:22;;;;;;;3.70;0.28;;;17.50;99.90;;;;;;5037480;28;20040;-65
2021/06/15 05:17:50;;;;;;;10.60;1.02;;;17.60;99.90;;;;;;5039338;28;20045;-64
2021/06/15 05:20:17;;;;;;;4.63;1.38;;;17.60;99.90;;;;;;5036478;28;20049;-64
2021/06/15 05:23:05;;;;;;;4.50;0.70;;;17.70;99.90;;;;;;5031651;28;20045;-64
2021/06/15 05:25:31;;;;;;;4.38;0.40;;;17.70;99.90;;;;;;5035910;28;20033;-67
2021/06/15 05:27:57;;;;;;;5.20;0.50;;;17.70;99.90;;;;;;5041873;28;20040;-67
2021/06/15 05:30:23;;;;;;;5.75;0.57;;;17.70;99.90;;;;;;5054613;28;20025;-65
2021/06/15 05:32:50;;;;;;;8.57;2.75;;;17.70;99.90;;;;;;5046486;28;20396;-68
2021/06/15 05:35:15;;;;;;;7.45;2.03;;;17.70;99.90;;;;;;5036319;28;20033;-68
2021/06/15 05:37:43;;;;;;;4.68;0.57;;;17.70;99.90;;;;;;5042010;28;20033;-69
2021/06/15 05:40:09;;;;;;;7.82;1.00;;;17.70;99.90;;;;;;5041607;28;20068;-68
2021/06/15 05:42:35;;;;;;;2.58;0.50;;;17.70;99.90;;;;;;5046612;28;20040;-67
2021/06/15 05:45:01;;;;;;;5.45;1.20;;;17.60;99.90;;;;;;5051570;28;20067;-68
2021/06/15 05:47:28;;;;;;;5.55;0.88;;;17.60;99.90;;;;;;5043950;28;20021;-69
2021/06/15 05:49:54;;;;;;;1.10;0.25;;;17.60;99.90;;;;;;5041877;28;20033;-68
2021/06/15 05:52:19;;;;;;;3.35;0.95;;;17.60;99.90;;;;;;5034803;28;20041;-68
2021/06/15 05:54:45;;;;;;;2.78;0.40;;;17.70;99.90;;;;;;5034504;28;20044;-68
2021/06/15 05:57:11;;;;;;;2.00;0.50;;;17.80;99.90;;;;;;5038460;28;20052;-67
2021/06/15 05:59:36;;;;;;;4.40;0.30;;;17.80;99.90;;;;;;5044819;28;20069;-68
2021/06/15 06:02:02;;;;;;;2.90;0.65;;;17.80;99.90;;;;;;5046621;28;20136;-67
2021/06/15 06:04:33;;;;;;;5.38;0.30;;;17.90;99.90;;;;;;5041508;28;20437;-67
2021/06/15 06:09:43;;;;;;;4.78;0.60;;;18.00;99.90;;;;;;5038398;28;20036;-69
2021/06/15 06:12:09;;;;;;;2.65;0.40;;;18.10;99.90;;;;;;5038487;28;20045;-69
2021/06/15 06:14:36;;;;;;;2.90;0.40;;;18.20;99.90;;;;;;5039984;28;20339;-68
2021/06/15 06:17:02;;;;;;;4.13;0.70;;;18.30;99.90;;;;;;5042908;28;20029;-68
2021/06/15 06:19:28;;;;;;;4.15;0.95;;;18.20;99.90;;;;;;5045478;28;20296;-66
2021/06/15 06:21:54;;;;;;;4.30;0.45;;;18.20;99.90;;;;;;5039978;28;20044;-67
2021/06/15 06:24:20;;;;;;;4.03;0.50;;;18.20;99.90;;;;;;5044752;28;20032;-69
2021/06/15 06:26:48;;;;;;;4.47;0.40;;;18.20;99.90;;;;;;5044370;28;20481;-69
2021/06/15 06:29:14;;;;;;;4.28;0.45;;;18.20;99.90;;;;;;5044496;28;20108;-68
2021/06/15 06:31:40;;;;;;;1.88;0.35;;;18.30;99.90;;;;;;5042246;28;20115;-68
2021/06/15 06:34:06;;;;;;;6.53;0.43;;;18.40;99.90;;;;;;5042781;28;20048;-69
2021/06/15 06:36:31;;;;;;;4.13;0.63;;;18.30;99.90;;;;;;5044638;28;20025;-67
2021/06/15 06:38:57;;;;;;;4.78;0.50;;;18.20;99.90;;;;;;5043289;28;20052;-67
2021/06/15 06:41:22;;;;;;;6.53;1.25;;;18.40;99.90;;;;;;5036636;28;20049;-64
2021/06/15 06:43:48;;;;;;;5.63;0.60;;;18.50;99.90;;;;;;5038129;28;20128;-68
2021/06/15 06:46:14;;;;;;;3.47;0.50;;;18.60;99.90;;;;;;5040379;28;20124;-69
2021/06/15 06:48:40;;;;;;;2.78;0.73;;;18.70;99.90;;;;;;5042721;28;20236;-69
2021/06/15 06:51:05;;;;;;;1.67;0.30;;;18.80;99.90;;;;;;5041445;28;20136;-66
2021/06/15 06:53:35;;;;;;;7.43;0.63;;;18.80;99.90;;;;;;5037865;28;20049;-69
2021/06/15 09:43:20;;;;;;;3.17;0.70;;;25.50;60.10;;;;;;5051396;28;20430;-68
2021/06/15 09:45:48;;;;;;;3.80;0.75;;;25.30;59.10;;;;;;5020480;28;20505;-68
2021/06/15 09:48:34;;;;;;;4.22;0.70;;;25.40;62.50;;;;;;5019132;28;20041;-68
2021/06/15 09:51:03;;;;;;;5.03;0.85;;;25.40;62.70;;;;;;5016472;28;20029;-68
2021/06/15 09:53:32;;;;;;;4.57;0.43;;;25.40;62.70;;;;;;5017679;28;20041;-68
2021/06/15 09:56:10;;;;;;;15.35;1.13;;;25.40;61.60;;;;;;5018253;28;20034;-69
2021/06/15 09:58:47;;;;;;;6.90;0.80;;;25.30;63.50;;;;;;5018710;28;20122;-69
2021/06/15 10:01:35;;;;;;;7.97;0.73;;;25.50;62.20;;;;;;5018371;28;20038;-70
2021/06/15 10:04:18;;;;;;;3.03;1.00;;;25.30;61.00;;;;;;5017364;28;20030;-73
2021/06/15 10:06:55;;;;;;;2.40;0.43;;;25.50;63.30;;;;;;5017671;28;20045;-70
2021/06/15 10:09:28;;;;;;;12.27;1.50;;;25.40;61.70;;;;;;5018211;28;20037;-69
2021/06/15 10:11:56;;;;;;;3.70;0.77;;;25.40;60.50;;;;;;5018064;28;20064;-69
2021/06/15 10:14:22;;;;;;;344.58;22.60;;;25.40;61.10;;;;;;5018244;28;20441;-70
2021/06/15 10:16:49;;;;;;;7.50;1.02;;;25.40;62.90;;;;;;5018511;28;20034;-69
2021/06/15 10:19:15;;;;;;;335.02;22.08;;;25.40;63.90;;;;;;5017760;28;20121;-70
2021/06/15 10:21:41;;;;;;;7.15;0.75;;;25.60;64.10;;;;;;5019799;28;20576;-71
2021/06/15 10:24:07;;;;;;;4.10;0.80;;;25.50;63.80;;;;;;5018420;28;20038;-71
2021/06/15 10:26:34;;;;;;;3.67;0.55;;;25.60;63.60;;;;;;5018560;28;20562;-70
2021/06/15 10:29:01;;;;;;;6.10;0.90;;;25.60;62.80;;;;;;5018081;28;20104;-71
2021/06/15 10:31:32;;;;;;;3.95;1.25;;;25.40;64.20;;;;;;5017949;28;20120;-71
2021/06/15 10:33:59;;;;;;;2.92;0.65;;;25.50;62.60;;;;;;5015648;28;20045;-67
2021/06/15 10:36:42;;;;;;;5.22;0.68;;;25.20;63.40;;;;;;5018051;28;20474;-71
2021/06/15 10:39:15;;;;;;;3.40;0.50;;;25.40;64.60;;;;;;5014757;28;20506;-70
2021/06/15 10:41:41;;;;;;;2.92;0.57;;;25.40;64.70;;;;;;5023731;28;20501;-70
2021/06/15 10:44:09;;;;;;;5.25;1.38;;;25.30;64.20;;;;;;5019840;28;20033;-71
2021/06/15 10:46:40;;;;;;;5.57;1.40;;;25.40;64.50;;;;;;5022949;28;20041;-70
2021/06/15 10:49:11;;;;;;;4.07;0.88;;;25.50;65.70;;;;;;5037491;28;20512;-70
2021/06/15 10:51:53;;;;;;;4.70;0.75;;;25.40;64.30;;;;;;5037446;28;20067;-71
2021/06/15 10:54:41;;;;;;;3.72;0.60;;;25.50;64.10;;;;;;5026228;28;20049;-69
2021/06/15 10:57:16;;;;;;;3.35;0.50;;;25.40;65.20;;;;;;5022927;28;20033;-70
2021/06/15 11:00:11;;;;;;;6.32;1.02;;;25.20;64.70;;;;;;5023840;28;20905;-71
2021/06/15 11:02:37;;;;;;;4.93;0.52;;;25.10;66.30;;;;;;5022784;28;20394;-70
2021/06/15 11:05:37;;;;;;;6.88;1.23;;;25.20;67.10;;;;;;5007304;28;20041;-70
2021/06/15 11:08:19;;;;;;;4.40;0.57;;;25.10;65.90;;;;;;5022187;28;20046;-70
2021/06/15 11:10:57;;;;;;;6.72;0.80;;;25.00;64.90;;;;;;5023459;28;20107;-70
2021/06/15 11:13:41;;;;;;;2.63;0.50;;;25.10;64.40;;;;;;5024944;28;20087;-70
2021/06/15 11:16:17;;;;;;;3.72;0.80;;;25.20;64.80;;;;;;5023678;28;20453;-70
2021/06/15 11:18:43;;;;;;;6.60;0.60;;;25.30;65.30;;;;;;5023351;28;20033;-72
2021/06/15 11:21:17;;;;;;;2.55;0.73;;;25.20;64.00;;;;;;5024153;28;20460;-70
2021/06/15 11:23:43;;;;;;;5.15;0.82;;;25.10;63.50;;;;;;5024175;28;20034;-69
2021/06/15 11:26:16;;;;;;;3.17;0.60;;;25.00;64.20;;;;;;5023862;28;20486;-71
2021/06/15 11:28:58;;;;;;;5.57;0.65;;;25.10;63.40;;;;;;5024425;28;20136;-70
2021/06/15 11:31:28;;;;;;;5.60;0.70;;;25.20;65.10;;;;;;5022747;28;20049;-69
2021/06/15 11:34:16;;;;;;;5.60;0.95;;;25.10;64.00;;;;;;5022837;28;20032;-72
2021/06/15 11:36:47;;;;;;;4.28;0.80;;;25.00;63.60;;;;;;5025534;28;20037;-71
2021/06/15 11:39:27;;;;;;;3.45;0.60;;;24.90;62.90;;;;;;5026004;28;20029;-73
2021/06/15 11:42:30;;;;;;;8.98;0.90;;;24.90;64.10;;;;;;5022573;28;20103;-73
2021/06/15 11:45:06;;;;;;;4.22;0.70;;;24.80;64.80;;;;;;5023402;28;20508;-72
2021/06/15 11:47:45;;;;;;;7.05;0.65;;;24.80;65.50;;;;;;5004464;28;20037;-76
2021/06/15 11:50:11;;;;;;;4.75;0.73;;;24.70;65.10;;;;;;5004970;28;20441;-70
2021/06/15 11:52:39;;;;;;;3.28;0.57;;;24.70;63.90;;;;;;5022074;28;20116;-71
2021/06/15 11:55:06;;;;;;;2.53;0.60;;;24.80;64.20;;;;;;5024152;28;20038;-71
2021/06/15 11:57:32;;;;;;;4.75;0.90;;;24.80;64.70;;;;;;5023512;28;20216;-69
2021/06/15 11:59:58;;;;;;;1.48;0.30;;;24.90;63.70;;;;;;5023443;28;20490;-69
2021/06/15 12:02:24;;;;;;;3.67;1.02;;;25.00;64.40;;;;;;5021953;28;20113;-66
2021/06/15 12:05:10;;;;;;;4.97;0.95;;;24.90;64.60;;;;;;5022066;28;20030;-67
2021/06/15 12:07:50;;;;;;;6.68;0.80;;;25.00;64.30;;;;;;5022916;28;20485;-68
2021/06/15 12:10:19;;;;;;;3.28;0.47;;;24.90;63.20;;;;;;5023026;28;20037;-68
2021/06/15 12:13:01;;;;;;;3.13;0.77;;;24.90;63.80;;;;;;5022543;28;20033;-70
2021/06/15 12:15:31;;;;;;;10.55;1.00;;;24.80;63.10;;;;;;5023266;28;20042;-69
2021/06/15 12:17:57;;;;;;;3.28;0.65;;;24.70;64.10;;;;;;5004557;28;20114;-67
2021/06/15 12:20:29;;;;;;;5.75;0.75;;;24.50;64.40;;;;;;5022986;28;20073;-68
2021/06/15 12:22:55;;;;;;;3.55;0.70;;;24.70;64.60;;;;;;5019121;28;20039;-67
2021/06/15 12:25:31;;;;;;;6.43;0.80;;;24.80;62.20;;;;;;5021795;28;20049;-67
2021/06/15 12:28:18;;;;;;;2.75;0.38;;;24.70;63.50;;;;;;5022507;28;20044;-67
2021/06/15 12:30:44;;;;;;;3.47;0.85;;;24.50;64.50;;;;;;5024148;28;20556;-67
2021/06/15 12:33:11;;;;;;;7.47;0.60;;;24.70;62.20;;;;;;5023813;28;20098;-67
2021/06/15 12:35:37;;;;;;;5.65;1.35;;;24.70;64.30;;;;;;5023286;28;20037;-66
2021/06/15 12:38:10;;;;;;;5.95;0.70;;;24.70;63.50;;;;;;5023049;28;20447;-68
2021/06/15 12:40:41;;;;;;;2.50;0.75;;;24.70;63.00;;;;;;5002945;28;20037;-67
2021/06/15 12:43:09;;;;;;;5.05;0.40;;;24.80;64.10;;;;;;5021989;28;20045;-69
2021/06/15 12:45:36;;;;;;;2.40;0.60;;;24.80;63.50;;;;;;5021844;28;20037;-68
2021/06/15 12:48:21;;;;;;;2.65;0.50;;;24.80;63.30;;;;;;5024432;28;20033;-66
2021/06/15 12:50:46;;;;;;;3.40;0.52;;;24.70;62.90;;;;;;5021875;28;20438;-68
2021/06/15 12:53:12;;;;;;;3.33;0.40;;;24.80;63.80;;;;;;5022171;28;20517;-67
2021/06/15 12:55:42;;;;;;;3.22;0.85;;;24.80;61.20;;;;;;5022082;28;20091;-68
2021/06/15 12:58:11;;;;;;;3.88;0.57;;;24.80;60.50;;;;;;5021438;28;20038;-68
2021/06/15 13:00:44;;;;;;;2.40;0.47;;;24.80;62.50;;;;;;5022595;28;20482;-68
2021/06/15 13:03:14;;;;;;;2.25;0.38;;;24.60;61.40;;;;;;5020989;28;20045;-69
2021/06/15 13:05:41;;;;;;;5.28;0.82;;;24.60;61.60;;;;;;5005145;28;20133;-68
2021/06/15 13:08:07;;;;;;;5.40;0.68;;;24.50;61.50;;;;;;5021525;28;20397;-68
2021/06/15 13:10:32;;;;;;;6.20;1.42;;;24.60;62.40;;;;;;5022430;28;20038;-70
2021/06/15 13:13:02;;;;;;;8.32;0.55;;;24.40;61.80;;;;;;5022182;28;20048;-69
2021/06/15 13:15:29;;;;;;;2.08;0.47;;;24.50;62.30;;;;;;5021711;28;20045;-74
2021/06/15 13:18:01;;;;;;;5.30;0.60;;;24.50;61.20;;;;;;5024063;28;20079;-70
2021/06/15 13:20:28;;;;;;;4.72;0.40;;;24.50;61.30;;;;;;5025894;28;20032;-73
2021/06/15 13:22:54;;;;;;;2.95;0.60;;;24.50;61.20;;;;;;5003433;28;20041;-72
2021/06/15 13:25:24;;;;;;;1.98;0.65;;;24.50;61.60;;;;;;5021933;28;20037;-71
2021/06/15 13:27:57;;;;;;;5.07;0.63;;;24.50;62.20;;;;;;5021133;28;20127;-70
2021/06/15 13:30:28;;;;;;;153.77;7.20;;;24.60;62.30;;;;;;5021751;28;20414;-63
2021/06/15 13:33:03;;;;;;;1.70;0.60;;;24.60;61.20;;;;;;5019426;28;21506;-66
2021/06/15 13:35:29;;;;;;;2.33;0.50;;;24.60;60.70;;;;;;5037689;28;20540;-67
2021/06/15 13:37:57;;;;;;;4.80;0.88;;;24.30;60.40;;;;;;5021243;28;20033;-68
2021/06/15 13:40:30;;;;;;;3.63;0.75;;;24.30;60.90;;;;;;5020947;28;20088;-67
2021/06/15 13:42:57;;;;;;;6.13;0.60;;;24.10;62.10;;;;;;5021672;28;20049;-68
2021/06/15 13:45:32;;;;;;;3.22;0.70;;;24.10;62.30;;;;;;5021350;28;20049;-67
2021/06/15 13:47:58;;;;;;;5.43;0.90;;;24.10;63.20;;;;;;5020804;28;20046;-68
2021/06/15 13:50:24;;;;;;;4.88;0.90;;;24.10;62.80;;;;;;5021260;28;20567;-68
2021/06/15 13:52:50;;;;;;;2.38;0.60;;;24.10;61.90;;;;;;5020375;28;20508;-68
2021/06/15 13:55:16;;;;;;;4.72;0.60;;;24.20;62.20;;;;;;5036900;28;20038;-68
2021/06/15 13:57:41;;;;;;;2.17;0.50;;;24.30;61.90;;;;;;5021549;28;20813;-68
2021/06/15 14:00:10;;;;;;;1.95;0.95;;;24.30;61.30;;;;;;5003967;28;20049;-68
2021/06/15 14:02:36;;;;;;;5.30;0.65;;;24.20;60.50;;;;;;5020459;28;20095;-67
2021/06/15 14:05:02;;;;;;;4.30;0.60;;;24.30;61.30;;;;;;5003776;28;20037;-67
2021/06/15 14:07:27;;;;;;;2.38;0.60;;;24.20;61.40;;;;;;5021675;28;20033;-67
2021/06/15 14:09:53;;;;;;;4.72;0.68;;;24.20;61.80;;;;;;5021169;28;20037;-67
2021/06/15 14:12:19;;;;;;;4.38;0.50;;;24.20;62.40;;;;;;5021027;28;20096;-67
2021/06/15 14:14:44;;;;;;;3.63;0.70;;;24.20;62.40;;;;;;5021770;28;20442;-67
2021/06/15 14:17:10;;;;;;;3.05;0.77;;;24.20;63.60;;;;;;5021939;28;20041;-67
2021/06/15 14:19:37;;;;;;;6.43;1.08;;;24.20;62.10;;;;;;5021745;28;20156;-67
2021/06/15 14:22:03;;;;;;;1.77;0.60;;;24.20;61.20;;;;;;5019184;28;20463;-67
2021/06/15 14:24:29;;;;;;;4.40;0.57;;;24.10;61.50;;;;;;5021006;28;20029;-67
2021/06/15 14:27:01;;;;;;;1.48;0.30;;;24.00;61.60;;;;;;5021229;28;20095;-67
2021/06/15 14:29:26;;;;;;;3.47;0.55;;;23.90;61.70;;;;;;5024045;28;20452;-67
2021/06/15 14:31:52;;;;;;;6.38;1.10;;;23.90;62.60;;;;;;5023517;28;20029;-67
2021/06/15 14:34:21;;;;;;;6.72;0.80;;;24.00;63.20;;;;;;5007272;28;20588;-67
2021/06/15 14:36:47;;;;;;;4.28;1.10;;;24.00;63.50;;;;;;5024563;28;20406;-68
2021/06/15 14:39:12;;;;;;;6.57;0.82;;;24.00;62.80;;;;;;5024828;28;20029;-67
2021/06/15 14:41:38;;;;;;;2.55;0.80;;;24.00;63.00;;;;;;5024595;28;20389;-67
2021/06/15 14:44:04;;;;;;;3.38;0.70;;;24.10;63.80;;;;;;5024483;28;20026;-67
2021/06/15 14:46:30;;;;;;;2.00;0.50;;;24.10;63.40;;;;;;5024814;28;20034;-67
2021/06/15 14:48:56;;;;;;;2.85;0.35;;;24.10;62.50;;;;;;5024486;28;20575;-67
2021/06/15 14:51:21;;;;;;;4.55;0.45;;;24.00;62.20;;;;;;5006719;28;20041;-67
2021/06/15 14:53:47;;;;;;;3.47;0.63;;;24.00;60.50;;;;;;5037872;28;20052;-69
2021/06/15 14:56:13;;;;;;;4.32;0.80;;;23.90;60.90;;;;;;5006788;28;20052;-67
2021/06/15 14:58:39;;;;;;;2.75;0.95;;;23.80;63.00;;;;;;5003645;28;20029;-68
2021/06/15 15:01:04;;;;;;;3.80;0.63;;;23.70;63.50;;;;;;5005057;28;20029;-67
2021/06/15 15:03:30;;;;;;;3.90;0.73;;;23.70;63.60;;;;;;5007435;28;20041;-68
2021/06/15 15:05:55;;;;;;;5.53;0.95;;;23.70;64.00;;;;;;5023546;28;20037;-67
2021/06/15 15:08:21;;;;;;;4.88;0.88;;;23.70;64.10;;;;;;5024520;28;20044;-67
2021/06/15 15:10:47;;;;;;;3.85;0.57;;;23.70;64.10;;;;;;5023946;28;20053;-67
2021/06/15 15:13:12;;;;;;;2.38;0.52;;;23.80;63.50;;;;;;5023678;28;20026;-67
2021/06/15 15:15:38;;;;;;;3.72;1.02;;;23.90;63.40;;;;;;5024661;28;20061;-67
2021/06/15 15:18:04;;;;;;;5.40;1.02;;;23.80;62.60;;;;;;5005279;28;20032;-67
2021/06/15 15:20:29;;;;;;;3.20;0.60;;;23.80;62.80;;;;;;5027766;28;20085;-67
2021/06/15 15:22:55;;;;;;;5.97;0.90;;;23.80;62.70;;;;;;5025781;28;20038;-67
2021/06/15 15:25:21;;;;;;;8.48;1.00;;;23.80;63.70;;;;;;5024822;28;20048;-67
2021/06/15 15:27:49;;;;;;;7.15;2.42;;;23.80;63.90;;;;;;5006324;28;20036;-67
2021/06/15 15:30:17;;;;;;;4.38;1.48;;;23.80;64.20;;;;;;5005276;28;20041;-67
2021/06/15 15:32:45;;;;;;;5.55;1.02;;;23.80;63.90;;;;;;5023795;28;20064;-67
2021/06/15 15:35:11;;;;;;;2.45;0.70;;;23.80;63.00;;;;;;5022784;28;20883;-67
2021/06/15 15:37:37;;;;;;;6.53;2.63;;;23.60;63.20;;;;;;5037305;28;20034;-67
2021/06/15 15:40:04;;;;;;;3.80;0.85;;;23.60;64.10;;;;;;5006780;28;20107;-68
2021/06/15 15:42:31;;;;;;;6.35;2.30;;;23.60;63.90;;;;;;5025503;28;20044;-67
2021/06/15 15:45:02;;;;;;;2.95;0.95;;;23.50;63.40;;;;;;5024366;28;20042;-67
2021/06/15 15:47:28;;;;;;;7.18;1.02;;;23.50;63.40;;;;;;5022246;28;20033;-67
2021/06/15 15:49:53;;;;;;;4.68;0.50;;;23.50;64.50;;;;;;5023953;28;20048;-67